sensor_id;sensor_type;location;lat;lon;timestamp;temperature;humidity
27890;DHT22;15238;49.082;9.102;2022-07-15T00:00:53;18.60;71.00
27890;DHT22;15238;49.082;9.102;2022-07-15T00:02:54;18.60;71.40
27890;DHT22;15238;49.082;9.102;2022-07-15T00:04:55;18.40;70.40
27890;DHT22;15238;49.082;9.102;2022-07-15T00:06:55;18.40;71.00
27890;DHT22;15238;49.082;9.102;2022-07-15T00:08:56;18.40;71.50
27890;DHT22;15238;49.082;9.102;2022-07-15T00:10:56;18.40;71.00
27890;DHT22;15238;49.082;9.102;2022-07-15T00:12:58;18.30;72.20
27890;DHT22;15238;49.082;9.102;2022-07-15T00:14:59;18.30;71.70
27890;DHT22;15238;49.082;9.102;2022-07-15T00:17:00;18.20;71.20
27890;DHT22;15238;49.082;9.102;2022-07-15T00:19:00;18.30;71.70
27890;DHT22;15238;49.082;9.102;2022-07-15T00:21:01;18.30;71.40
27890;DHT22;15238;49.082;9.102;2022-07-15T00:23:03;18.20;71.20
27890;DHT22;15238;49.082;9.102;2022-07-15T00:25:04;18.10;72.40
27890;DHT22;15238;49.082;9.102;2022-07-15T00:27:05;18.10;72.90
27890;DHT22;15238;49.082;9.102;2022-07-15T00:29:05;18.00;72.90
27890;DHT22;15238;49.082;9.102;2022-07-15T00:31:06;17.90;73.50
27890;DHT22;15238;49.082;9.102;2022-07-15T00:33:07;17.90;73.40
27890;DHT22;15238;49.082;9.102;2022-07-15T00:35:08;17.80;73.90
27890;DHT22;15238;49.082;9.102;2022-07-15T00:37:09;17.80;73.40
27890;DHT22;15238;49.082;9.102;2022-07-15T00:39:09;17.70;73.90
27890;DHT22;15238;49.082;9.102;2022-07-15T00:41:10;17.70;74.90
27890;DHT22;15238;49.082;9.102;2022-07-15T00:43:11;17.70;74.00
27890;DHT22;15238;49.082;9.102;2022-07-15T00:45:21;17.60;74.00
27890;DHT22;15238;49.082;9.102;2022-07-15T00:47:22;17.50;75.30
27890;DHT22;15238;49.082;9.102;2022-07-15T00:49:22;17.60;75.70
27890;DHT22;15238;49.082;9.102;2022-07-15T00:51:23;17.50;75.60
27890;DHT22;15238;49.082;9.102;2022-07-15T00:53:26;17.60;75.70
27890;DHT22;15238;49.082;9.102;2022-07-15T00:55:30;17.60;76.10
27890;DHT22;15238;49.082;9.102;2022-07-15T00:57:32;17.50;75.70
27890;DHT22;15238;49.082;9.102;2022-07-15T00:59:37;17.50;75.90
27890;DHT22;15238;49.082;9.102;2022-07-15T01:01:38;17.40;76.30
27890;DHT22;15238;49.082;9.102;2022-07-15T01:03:39;17.30;76.50
27890;DHT22;15238;49.082;9.102;2022-07-15T01:05:41;17.20;76.20
27890;DHT22;15238;49.082;9.102;2022-07-15T01:07:42;17.20;76.80
27890;DHT22;15238;49.082;9.102;2022-07-15T01:09:42;17.10;77.30
27890;DHT22;15238;49.082;9.102;2022-07-15T01:11:43;17.10;77.50
27890;DHT22;15238;49.082;9.102;2022-07-15T01:13:44;17.00;77.90
27890;DHT22;15238;49.082;9.102;2022-07-15T01:15:45;17.00;78.50
27890;DHT22;15238;49.082;9.102;2022-07-15T01:17:47;17.00;79.50
27890;DHT22;15238;49.082;9.102;2022-07-15T01:19:47;17.00;80.20
27890;DHT22;15238;49.082;9.102;2022-07-15T01:21:48;17.00;80.50
27890;DHT22;15238;49.082;9.102;2022-07-15T01:23:49;17.00;80.80
27890;DHT22;15238;49.082;9.102;2022-07-15T01:25:50;17.00;80.90
27890;DHT22;15238;49.082;9.102;2022-07-15T01:27:53;16.90;80.90
27890;DHT22;15238;49.082;9.102;2022-07-15T01:29:54;16.90;80.70
27890;DHT22;15238;49.082;9.102;2022-07-15T01:31:54;16.90;81.10
27890;DHT22;15238;49.082;9.102;2022-07-15T01:33:55;16.80;81.60
27890;DHT22;15238;49.082;9.102;2022-07-15T01:35:56;16.80;81.80
27890;DHT22;15238;49.082;9.102;2022-07-15T01:37:56;16.70;81.80
27890;DHT22;15238;49.082;9.102;2022-07-15T01:39:57;16.70;82.10
27890;DHT22;15238;49.082;9.102;2022-07-15T01:41:57;16.70;82.60
27890;DHT22;15238;49.082;9.102;2022-07-15T01:43:58;16.60;82.80
27890;DHT22;15238;49.082;9.102;2022-07-15T01:45:58;16.50;83.00
27890;DHT22;15238;49.082;9.102;2022-07-15T01:47:59;16.50;83.60
27890;DHT22;15238;49.082;9.102;2022-07-15T01:49:59;16.40;83.70
27890;DHT22;15238;49.082;9.102;2022-07-15T01:52:01;16.50;84.00
27890;DHT22;15238;49.082;9.102;2022-07-15T01:54:02;16.40;84.40
27890;DHT22;15238;49.082;9.102;2022-07-15T01:56:03;16.40;85.20
27890;DHT22;15238;49.082;9.102;2022-07-15T01:58:03;16.40;85.80
27890;DHT22;15238;49.082;9.102;2022-07-15T02:00:06;16.40;86.20
27890;DHT22;15238;49.082;9.102;2022-07-15T02:02:07;16.30;86.30
27890;DHT22;15238;49.082;9.102;2022-07-15T02:04:08;16.30;86.50
27890;DHT22;15238;49.082;9.102;2022-07-15T02:06:08;16.30;87.50
27890;DHT22;15238;49.082;9.102;2022-07-15T02:08:09;16.30;87.10
27890;DHT22;15238;49.082;9.102;2022-07-15T02:10:10;16.20;86.80
27890;DHT22;15238;49.082;9.102;2022-07-15T02:12:10;16.20;87.00
27890;DHT22;15238;49.082;9.102;2022-07-15T02:14:11;16.10;87.40
27890;DHT22;15238;49.082;9.102;2022-07-15T02:16:12;16.10;87.80
27890;DHT22;15238;49.082;9.102;2022-07-15T02:18:12;16.10;88.30
27890;DHT22;15238;49.082;9.102;2022-07-15T02:20:13;16.00;88.60
27890;DHT22;15238;49.082;9.102;2022-07-15T02:22:13;16.00;88.90
27890;DHT22;15238;49.082;9.102;2022-07-15T02:24:14;16.00;89.50
27890;DHT22;15238;49.082;9.102;2022-07-15T02:26:14;15.90;89.80
27890;DHT22;15238;49.082;9.102;2022-07-15T02:28:15;15.90;90.10
27890;DHT22;15238;49.082;9.102;2022-07-15T02:30:16;15.90;90.20
27890;DHT22;15238;49.082;9.102;2022-07-15T02:32:16;15.90;90.50
27890;DHT22;15238;49.082;9.102;2022-07-15T02:34:17;15.80;90.80
27890;DHT22;15238;49.082;9.102;2022-07-15T02:36:17;15.70;91.10
27890;DHT22;15238;49.082;9.102;2022-07-15T02:38:18;15.70;91.20
27890;DHT22;15238;49.082;9.102;2022-07-15T02:40:20;15.70;91.30
27890;DHT22;15238;49.082;9.102;2022-07-15T02:42:21;15.60;91.40
27890;DHT22;15238;49.082;9.102;2022-07-15T02:44:21;15.60;91.60
27890;DHT22;15238;49.082;9.102;2022-07-15T02:46:22;15.60;91.60
27890;DHT22;15238;49.082;9.102;2022-07-15T02:48:22;15.50;91.80
27890;DHT22;15238;49.082;9.102;2022-07-15T02:50:23;15.50;92.00
27890;DHT22;15238;49.082;9.102;2022-07-15T02:52:23;15.40;92.30
27890;DHT22;15238;49.082;9.102;2022-07-15T02:54:24;15.50;92.60
27890;DHT22;15238;49.082;9.102;2022-07-15T02:56:24;15.50;92.70
27890;DHT22;15238;49.082;9.102;2022-07-15T02:58:26;15.40;92.90
27890;DHT22;15238;49.082;9.102;2022-07-15T03:00:28;15.40;93.00
27890;DHT22;15238;49.082;9.102;2022-07-15T03:02:28;15.40;93.20
27890;DHT22;15238;49.082;9.102;2022-07-15T03:04:29;15.40;93.80
27890;DHT22;15238;49.082;9.102;2022-07-15T03:06:29;15.40;94.00
27890;DHT22;15238;49.082;9.102;2022-07-15T03:08:30;15.30;93.90
27890;DHT22;15238;49.082;9.102;2022-07-15T03:10:31;15.30;94.10
27890;DHT22;15238;49.082;9.102;2022-07-15T03:12:31;15.20;94.60
27890;DHT22;15238;49.082;9.102;2022-07-15T03:14:32;15.20;94.70
27890;DHT22;15238;49.082;9.102;2022-07-15T03:16:32;15.20;94.90
27890;DHT22;15238;49.082;9.102;2022-07-15T03:18:34;15.10;95.40
27890;DHT22;15238;49.082;9.102;2022-07-15T03:20:34;15.10;95.90
27890;DHT22;15238;49.082;9.102;2022-07-15T03:22:36;15.10;96.20
27890;DHT22;15238;49.082;9.102;2022-07-15T03:24:36;15.10;96.30
27890;DHT22;15238;49.082;9.102;2022-07-15T03:26:37;15.10;96.70
27890;DHT22;15238;49.082;9.102;2022-07-15T03:28:37;15.10;97.10
27890;DHT22;15238;49.082;9.102;2022-07-15T03:30:38;15.10;97.40
27890;DHT22;15238;49.082;9.102;2022-07-15T03:32:38;15.10;97.60
27890;DHT22;15238;49.082;9.102;2022-07-15T03:34:39;15.10;97.70
27890;DHT22;15238;49.082;9.102;2022-07-15T03:36:40;15.10;97.80
27890;DHT22;15238;49.082;9.102;2022-07-15T03:38:40;15.10;98.00
27890;DHT22;15238;49.082;9.102;2022-07-15T03:40:41;15.10;98.10
27890;DHT22;15238;49.082;9.102;2022-07-15T03:42:41;15.10;98.30
27890;DHT22;15238;49.082;9.102;2022-07-15T03:44:42;15.10;98.50
27890;DHT22;15238;49.082;9.102;2022-07-15T03:46:43;15.10;98.80
27890;DHT22;15238;49.082;9.102;2022-07-15T03:48:45;15.10;99.10
27890;DHT22;15238;49.082;9.102;2022-07-15T03:50:46;15.10;99.00
27890;DHT22;15238;49.082;9.102;2022-07-15T03:52:47;15.20;98.80
27890;DHT22;15238;49.082;9.102;2022-07-15T03:54:47;15.20;98.90
27890;DHT22;15238;49.082;9.102;2022-07-15T03:56:48;15.20;99.00
27890;DHT22;15238;49.082;9.102;2022-07-15T03:58:49;15.30;99.00
27890;DHT22;15238;49.082;9.102;2022-07-15T04:00:50;15.30;99.20
27890;DHT22;15238;49.082;9.102;2022-07-15T04:02:50;15.30;99.00
27890;DHT22;15238;49.082;9.102;2022-07-15T04:04:51;15.30;99.00
27890;DHT22;15238;49.082;9.102;2022-07-15T04:06:52;15.40;99.30
27890;DHT22;15238;49.082;9.102;2022-07-15T04:08:53;15.40;99.40
27890;DHT22;15238;49.082;9.102;2022-07-15T04:10:55;15.40;99.40
27890;DHT22;15238;49.082;9.102;2022-07-15T04:12:56;15.40;99.60
27890;DHT22;15238;49.082;9.102;2022-07-15T04:14:57;15.40;99.80
27890;DHT22;15238;49.082;9.102;2022-07-15T04:16:57;15.40;99.70
27890;DHT22;15238;49.082;9.102;2022-07-15T04:18:58;15.40;99.90
27890;DHT22;15238;49.082;9.102;2022-07-15T04:20:59;15.40;99.90
27890;DHT22;15238;49.082;9.102;2022-07-15T04:22:59;15.30;99.90
27890;DHT22;15238;49.082;9.102;2022-07-15T04:25:00;15.30;99.90
27890;DHT22;15238;49.082;9.102;2022-07-15T04:27:01;15.30;99.90
27890;DHT22;15238;49.082;9.102;2022-07-15T04:29:01;15.30;99.90
27890;DHT22;15238;49.082;9.102;2022-07-15T04:31:02;15.40;99.90
27890;DHT22;15238;49.082;9.102;2022-07-15T04:33:02;15.40;99.90
27890;DHT22;15238;49.082;9.102;2022-07-15T04:35:03;15.30;99.90
27890;DHT22;15238;49.082;9.102;2022-07-15T04:37:04;15.30;99.90
27890;DHT22;15238;49.082;9.102;2022-07-15T04:39:05;15.30;99.90
27890;DHT22;15238;49.082;9.102;2022-07-15T04:41:06;15.40;99.90
27890;DHT22;15238;49.082;9.102;2022-07-15T04:43:07;15.50;99.90
27890;DHT22;15238;49.082;9.102;2022-07-15T04:45:08;15.60;99.90
27890;DHT22;15238;49.082;9.102;2022-07-15T04:47:08;15.70;99.80
27890;DHT22;15238;49.082;9.102;2022-07-15T04:49:09;15.80;98.90
27890;DHT22;15238;49.082;9.102;2022-07-15T04:51:28;15.80;99.00
27890;DHT22;15238;49.082;9.102;2022-07-15T04:53:29;15.90;98.60
27890;DHT22;15238;49.082;9.102;2022-07-15T04:55:29;16.10;98.20
27890;DHT22;15238;49.082;9.102;2022-07-15T04:57:30;16.20;97.90
27890;DHT22;15238;49.082;9.102;2022-07-15T04:59:31;16.40;98.00
27890;DHT22;15238;49.082;9.102;2022-07-15T05:01:32;16.50;97.80
27890;DHT22;15238;49.082;9.102;2022-07-15T05:03:33;16.70;97.60
27890;DHT22;15238;49.082;9.102;2022-07-15T05:05:34;16.80;97.60
27890;DHT22;15238;49.082;9.102;2022-07-15T05:07:35;16.90;97.40
27890;DHT22;15238;49.082;9.102;2022-07-15T05:09:35;17.10;97.00
27890;DHT22;15238;49.082;9.102;2022-07-15T05:11:36;17.20;95.70
27890;DHT22;15238;49.082;9.102;2022-07-15T05:13:37;17.30;94.90
27890;DHT22;15238;49.082;9.102;2022-07-15T05:15:38;17.30;94.70
27890;DHT22;15238;49.082;9.102;2022-07-15T05:17:39;17.50;94.30
27890;DHT22;15238;49.082;9.102;2022-07-15T05:19:40;17.60;94.00
27890;DHT22;15238;49.082;9.102;2022-07-15T05:21:40;17.70;94.10
27890;DHT22;15238;49.082;9.102;2022-07-15T05:23:41;17.80;93.40
27890;DHT22;15238;49.082;9.102;2022-07-15T05:25:41;18.00;93.10
27890;DHT22;15238;49.082;9.102;2022-07-15T05:27:42;18.20;93.00
27890;DHT22;15238;49.082;9.102;2022-07-15T05:29:42;18.40;92.90
27890;DHT22;15238;49.082;9.102;2022-07-15T05:31:45;18.60;92.70
27890;DHT22;15238;49.082;9.102;2022-07-15T05:33:45;18.70;91.70
27890;DHT22;15238;49.082;9.102;2022-07-15T05:35:46;18.70;91.40
27890;DHT22;15238;49.082;9.102;2022-07-15T05:37:46;18.90;91.40
27890;DHT22;15238;49.082;9.102;2022-07-15T05:39:47;19.10;91.00
27890;DHT22;15238;49.082;9.102;2022-07-15T05:41:54;19.20;90.60
27890;DHT22;15238;49.082;9.102;2022-07-15T05:43:55;19.30;90.30
27890;DHT22;15238;49.082;9.102;2022-07-15T05:45:55;19.40;90.20
27890;DHT22;15238;49.082;9.102;2022-07-15T05:47:56;19.60;90.30
27890;DHT22;15238;49.082;9.102;2022-07-15T05:49:56;19.70;89.10
27890;DHT22;15238;49.082;9.102;2022-07-15T05:51:57;19.90;88.60
27890;DHT22;15238;49.082;9.102;2022-07-15T05:53:57;20.00;87.90
27890;DHT22;15238;49.082;9.102;2022-07-15T05:55:58;20.20;87.60
27890;DHT22;15238;49.082;9.102;2022-07-15T05:57:59;20.30;87.50
27890;DHT22;15238;49.082;9.102;2022-07-15T05:59:59;20.40;87.40
27890;DHT22;15238;49.082;9.102;2022-07-15T06:02:00;20.50;87.00
27890;DHT22;15238;49.082;9.102;2022-07-15T06:04:00;20.70;87.00
27890;DHT22;15238;49.082;9.102;2022-07-15T06:06:02;20.90;86.20
27890;DHT22;15238;49.082;9.102;2022-07-15T06:08:03;21.20;85.30
27890;DHT22;15238;49.082;9.102;2022-07-15T06:10:05;21.40;83.90
27890;DHT22;15238;49.082;9.102;2022-07-15T06:12:06;21.60;83.60
27890;DHT22;15238;49.082;9.102;2022-07-15T06:14:07;21.70;82.40
27890;DHT22;15238;49.082;9.102;2022-07-15T06:16:07;21.90;80.60
27890;DHT22;15238;49.082;9.102;2022-07-15T06:18:08;22.00;80.50
27890;DHT22;15238;49.082;9.102;2022-07-15T06:20:09;22.10;80.60
27890;DHT22;15238;49.082;9.102;2022-07-15T06:22:11;22.30;79.40
27890;DHT22;15238;49.082;9.102;2022-07-15T06:24:12;22.30;79.00
27890;DHT22;15238;49.082;9.102;2022-07-15T06:26:12;22.40;79.20
27890;DHT22;15238;49.082;9.102;2022-07-15T06:28:13;22.60;77.40
27890;DHT22;15238;49.082;9.102;2022-07-15T06:30:14;22.70;75.60
27890;DHT22;15238;49.082;9.102;2022-07-15T06:32:15;22.70;75.80
27890;DHT22;15238;49.082;9.102;2022-07-15T06:34:16;22.80;75.30
27890;DHT22;15238;49.082;9.102;2022-07-15T06:36:16;22.70;75.20
27890;DHT22;15238;49.082;9.102;2022-07-15T06:38:17;22.80;75.10
27890;DHT22;15238;49.082;9.102;2022-07-15T06:40:18;22.90;74.80
27890;DHT22;15238;49.082;9.102;2022-07-15T06:42:18;23.20;73.40
27890;DHT22;15238;49.082;9.102;2022-07-15T06:44:19;23.40;72.30
27890;DHT22;15238;49.082;9.102;2022-07-15T06:46:19;23.60;69.90
27890;DHT22;15238;49.082;9.102;2022-07-15T06:48:20;23.70;69.50
27890;DHT22;15238;49.082;9.102;2022-07-15T06:50:21;23.40;69.80
27890;DHT22;15238;49.082;9.102;2022-07-15T06:52:24;23.40;67.90
27890;DHT22;15238;49.082;9.102;2022-07-15T06:54:25;23.40;68.70
27890;DHT22;15238;49.082;9.102;2022-07-15T06:56:26;23.50;68.20
27890;DHT22;15238;49.082;9.102;2022-07-15T06:58:26;23.60;66.70
27890;DHT22;15238;49.082;9.102;2022-07-15T07:00:27;23.70;66.60
27890;DHT22;15238;49.082;9.102;2022-07-15T07:02:27;23.90;66.10
27890;DHT22;15238;49.082;9.102;2022-07-15T07:04:28;24.10;65.90
27890;DHT22;15238;49.082;9.102;2022-07-15T07:06:29;24.10;64.90
27890;DHT22;15238;49.082;9.102;2022-07-15T07:08:29;24.10;63.10
27890;DHT22;15238;49.082;9.102;2022-07-15T07:10:30;24.30;63.60
27890;DHT22;15238;49.082;9.102;2022-07-15T07:12:30;24.60;63.40
27890;DHT22;15238;49.082;9.102;2022-07-15T07:14:31;24.70;61.20
27890;DHT22;15238;49.082;9.102;2022-07-15T07:16:32;24.80;60.30
27890;DHT22;15238;49.082;9.102;2022-07-15T07:18:32;24.90;59.50
27890;DHT22;15238;49.082;9.102;2022-07-15T07:20:33;24.90;59.10
27890;DHT22;15238;49.082;9.102;2022-07-15T07:22:34;24.70;58.50
27890;DHT22;15238;49.082;9.102;2022-07-15T07:24:35;24.90;60.70
27890;DHT22;15238;49.082;9.102;2022-07-15T07:26:36;25.00;59.10
27890;DHT22;15238;49.082;9.102;2022-07-15T07:28:37;24.90;59.00
27890;DHT22;15238;49.082;9.102;2022-07-15T07:30:41;24.70;58.80
27890;DHT22;15238;49.082;9.102;2022-07-15T07:32:41;24.80;59.00
27890;DHT22;15238;49.082;9.102;2022-07-15T07:34:42;24.90;59.80
27890;DHT22;15238;49.082;9.102;2022-07-15T07:36:43;25.00;58.90
27890;DHT22;15238;49.082;9.102;2022-07-15T07:38:45;25.20;59.20
27890;DHT22;15238;49.082;9.102;2022-07-15T07:40:45;25.40;58.70
27890;DHT22;15238;49.082;9.102;2022-07-15T07:42:48;25.50;57.80
27890;DHT22;15238;49.082;9.102;2022-07-15T07:44:48;25.40;57.20
27890;DHT22;15238;49.082;9.102;2022-07-15T07:46:49;25.10;57.10
27890;DHT22;15238;49.082;9.102;2022-07-15T07:48:50;25.00;56.80
27890;DHT22;15238;49.082;9.102;2022-07-15T07:50:50;24.90;57.30
27890;DHT22;15238;49.082;9.102;2022-07-15T07:52:52;24.90;57.50
27890;DHT22;15238;49.082;9.102;2022-07-15T07:54:54;24.70;57.40
27890;DHT22;15238;49.082;9.102;2022-07-15T07:56:55;24.90;57.20
27890;DHT22;15238;49.082;9.102;2022-07-15T07:58:56;24.90;56.70
27890;DHT22;15238;49.082;9.102;2022-07-15T08:00:57;25.20;56.90
27890;DHT22;15238;49.082;9.102;2022-07-15T08:02:59;25.40;55.40
27890;DHT22;15238;49.082;9.102;2022-07-15T08:05:00;25.40;55.00
27890;DHT22;15238;49.082;9.102;2022-07-15T08:07:00;25.60;54.20
27890;DHT22;15238;49.082;9.102;2022-07-15T08:09:01;25.80;54.40
27890;DHT22;15238;49.082;9.102;2022-07-15T08:11:01;26.00;54.00
27890;DHT22;15238;49.082;9.102;2022-07-15T08:13:03;26.00;53.10
27890;DHT22;15238;49.082;9.102;2022-07-15T08:15:07;25.90;55.10
27890;DHT22;15238;49.082;9.102;2022-07-15T08:17:07;25.90;54.50
27890;DHT22;15238;49.082;9.102;2022-07-15T08:19:08;26.00;53.90
27890;DHT22;15238;49.082;9.102;2022-07-15T08:21:09;25.80;53.00
27890;DHT22;15238;49.082;9.102;2022-07-15T08:23:09;25.80;54.10
27890;DHT22;15238;49.082;9.102;2022-07-15T08:25:11;25.90;52.80
27890;DHT22;15238;49.082;9.102;2022-07-15T08:27:11;25.60;53.30
27890;DHT22;15238;49.082;9.102;2022-07-15T08:29:12;25.70;54.30
27890;DHT22;15238;49.082;9.102;2022-07-15T08:31:12;25.60;54.20
27890;DHT22;15238;49.082;9.102;2022-07-15T08:33:13;25.60;54.20
27890;DHT22;15238;49.082;9.102;2022-07-15T08:35:14;25.30;53.70
27890;DHT22;15238;49.082;9.102;2022-07-15T08:37:15;25.20;54.50
27890;DHT22;15238;49.082;9.102;2022-07-15T08:39:16;25.50;54.10
27890;DHT22;15238;49.082;9.102;2022-07-15T08:41:16;25.50;54.00
27890;DHT22;15238;49.082;9.102;2022-07-15T08:43:17;25.70;53.30
27890;DHT22;15238;49.082;9.102;2022-07-15T08:45:17;25.80;53.50
27890;DHT22;15238;49.082;9.102;2022-07-15T08:47:18;25.80;53.00
27890;DHT22;15238;49.082;9.102;2022-07-15T08:49:20;25.60;52.60
27890;DHT22;15238;49.082;9.102;2022-07-15T08:51:23;25.70;52.90
27890;DHT22;15238;49.082;9.102;2022-07-15T08:53:26;25.90;52.10
27890;DHT22;15238;49.082;9.102;2022-07-15T08:55:28;25.80;52.80
27890;DHT22;15238;49.082;9.102;2022-07-15T08:57:29;26.10;52.60
27890;DHT22;15238;49.082;9.102;2022-07-15T08:59:29;26.10;52.50
27890;DHT22;15238;49.082;9.102;2022-07-15T09:01:31;26.30;51.90
27890;DHT22;15238;49.082;9.102;2022-07-15T09:03:32;26.00;51.40
27890;DHT22;15238;49.082;9.102;2022-07-15T09:05:36;25.90;52.10
27890;DHT22;15238;49.082;9.102;2022-07-15T09:09:53;26.10;52.20
27890;DHT22;15238;49.082;9.102;2022-07-15T09:13:59;26.40;50.50
27890;DHT22;15238;49.082;9.102;2022-07-15T09:16:05;26.50;51.70
27890;DHT22;15238;49.082;9.102;2022-07-15T09:18:13;26.80;50.40
27890;DHT22;15238;49.082;9.102;2022-07-15T09:20:14;26.90;50.60
27890;DHT22;15238;49.082;9.102;2022-07-15T09:22:15;26.80;51.90
27890;DHT22;15238;49.082;9.102;2022-07-15T09:24:18;26.60;51.00
27890;DHT22;15238;49.082;9.102;2022-07-15T09:26:35;26.70;51.60
27890;DHT22;15238;49.082;9.102;2022-07-15T09:28:40;26.60;50.40
27890;DHT22;15238;49.082;9.102;2022-07-15T09:30:43;26.50;51.30
27890;DHT22;15238;49.082;9.102;2022-07-15T09:33:12;26.80;50.60
27890;DHT22;15238;49.082;9.102;2022-07-15T09:35:31;26.90;50.70
27890;DHT22;15238;49.082;9.102;2022-07-15T09:37:57;27.00;50.10
27890;DHT22;15238;49.082;9.102;2022-07-15T09:39:58;26.90;50.60
27890;DHT22;15238;49.082;9.102;2022-07-15T09:42:05;26.80;50.70
27890;DHT22;15238;49.082;9.102;2022-07-15T09:44:23;26.90;50.40
27890;DHT22;15238;49.082;9.102;2022-07-15T09:46:27;27.10;50.30
27890;DHT22;15238;49.082;9.102;2022-07-15T09:48:28;27.30;49.80
27890;DHT22;15238;49.082;9.102;2022-07-15T09:50:33;27.20;50.70
27890;DHT22;15238;49.082;9.102;2022-07-15T09:52:45;27.30;50.20
27890;DHT22;15238;49.082;9.102;2022-07-15T09:54:48;26.80;50.50
27890;DHT22;15238;49.082;9.102;2022-07-15T09:56:49;27.10;51.10
27890;DHT22;15238;49.082;9.102;2022-07-15T09:58:51;27.30;50.40
27890;DHT22;15238;49.082;9.102;2022-07-15T10:00:52;27.40;50.50
27890;DHT22;15238;49.082;9.102;2022-07-15T10:02:53;27.40;50.00
27890;DHT22;15238;49.082;9.102;2022-07-15T10:04:55;27.30;50.10
27890;DHT22;15238;49.082;9.102;2022-07-15T10:06:57;27.30;49.90
27890;DHT22;15238;49.082;9.102;2022-07-15T10:09:00;27.10;50.10
27890;DHT22;15238;49.082;9.102;2022-07-15T10:11:07;27.00;50.30
27890;DHT22;15238;49.082;9.102;2022-07-15T10:15:46;27.20;50.50
27890;DHT22;15238;49.082;9.102;2022-07-15T10:26:08;26.70;52.00
27890;DHT22;15238;49.082;9.102;2022-07-15T10:28:17;26.80;50.80
27890;DHT22;15238;49.082;9.102;2022-07-15T10:30:22;26.90;50.00
27890;DHT22;15238;49.082;9.102;2022-07-15T10:32:23;26.80;50.50
27890;DHT22;15238;49.082;9.102;2022-07-15T10:34:30;26.90;50.30
27890;DHT22;15238;49.082;9.102;2022-07-15T10:39:02;27.30;49.10
27890;DHT22;15238;49.082;9.102;2022-07-15T10:41:10;27.10;49.10
27890;DHT22;15238;49.082;9.102;2022-07-15T10:43:16;26.70;49.50
27890;DHT22;15238;49.082;9.102;2022-07-15T10:45:17;27.10;51.10
27890;DHT22;15238;49.082;9.102;2022-07-15T10:47:18;27.60;49.50
27890;DHT22;15238;49.082;9.102;2022-07-15T10:53:46;27.70;50.00
27890;DHT22;15238;49.082;9.102;2022-07-15T10:55:48;28.00;49.20
27890;DHT22;15238;49.082;9.102;2022-07-15T10:57:51;27.80;48.40
27890;DHT22;15238;49.082;9.102;2022-07-15T10:59:55;28.00;48.80
27890;DHT22;15238;49.082;9.102;2022-07-15T11:06:15;28.50;48.50
27890;DHT22;15238;49.082;9.102;2022-07-15T11:10:32;27.90;47.50
27890;DHT22;15238;49.082;9.102;2022-07-15T11:16:56;27.50;48.90
27890;DHT22;15238;49.082;9.102;2022-07-15T11:18:57;27.40;49.00
27890;DHT22;15238;49.082;9.102;2022-07-15T11:20:58;27.40;49.00
27890;DHT22;15238;49.082;9.102;2022-07-15T11:23:00;27.60;49.10
27890;DHT22;15238;49.082;9.102;2022-07-15T11:25:00;27.80;48.50
27890;DHT22;15238;49.082;9.102;2022-07-15T11:27:01;27.60;48.60
27890;DHT22;15238;49.082;9.102;2022-07-15T11:29:02;27.60;48.00
27890;DHT22;15238;49.082;9.102;2022-07-15T11:31:03;27.20;48.20
27890;DHT22;15238;49.082;9.102;2022-07-15T11:33:06;27.00;49.00
27890;DHT22;15238;49.082;9.102;2022-07-15T11:35:08;27.60;48.70
27890;DHT22;15238;49.082;9.102;2022-07-15T11:37:09;28.00;48.20
27890;DHT22;15238;49.082;9.102;2022-07-15T11:39:11;28.30;48.20
27890;DHT22;15238;49.082;9.102;2022-07-15T11:41:26;28.50;47.60
27890;DHT22;15238;49.082;9.102;2022-07-15T11:43:56;28.80;47.40
27890;DHT22;15238;49.082;9.102;2022-07-15T11:46:15;28.30;47.40
27890;DHT22;15238;49.082;9.102;2022-07-15T11:48:15;28.20;48.40
27890;DHT22;15238;49.082;9.102;2022-07-15T11:50:16;28.30;48.30
27890;DHT22;15238;49.082;9.102;2022-07-15T11:52:24;28.10;48.30
27890;DHT22;15238;49.082;9.102;2022-07-15T11:54:25;28.30;47.90
27890;DHT22;15238;49.082;9.102;2022-07-15T11:56:26;28.20;47.00
27890;DHT22;15238;49.082;9.102;2022-07-15T11:58:27;27.90;47.40
27890;DHT22;15238;49.082;9.102;2022-07-15T12:00:30;27.60;48.00
27890;DHT22;15238;49.082;9.102;2022-07-15T12:02:30;27.50;47.70
27890;DHT22;15238;49.082;9.102;2022-07-15T12:04:31;27.40;48.20
27890;DHT22;15238;49.082;9.102;2022-07-15T12:06:32;27.30;48.20
27890;DHT22;15238;49.082;9.102;2022-07-15T12:10:36;27.20;48.30
27890;DHT22;15238;49.082;9.102;2022-07-15T12:12:56;27.00;48.60
27890;DHT22;15238;49.082;9.102;2022-07-15T12:15:02;27.00;48.00
27890;DHT22;15238;49.082;9.102;2022-07-15T12:17:03;27.10;49.00
27890;DHT22;15238;49.082;9.102;2022-07-15T12:19:13;27.30;48.70
27890;DHT22;15238;49.082;9.102;2022-07-15T12:21:14;27.50;49.10
27890;DHT22;15238;49.082;9.102;2022-07-15T12:23:17;27.80;48.50
27890;DHT22;15238;49.082;9.102;2022-07-15T12:25:19;28.10;48.40
27890;DHT22;15238;49.082;9.102;2022-07-15T12:27:36;28.10;47.60
27890;DHT22;15238;49.082;9.102;2022-07-15T12:29:38;28.10;48.60
27890;DHT22;15238;49.082;9.102;2022-07-15T12:31:40;28.30;48.10
27890;DHT22;15238;49.082;9.102;2022-07-15T12:33:41;28.40;48.80
27890;DHT22;15238;49.082;9.102;2022-07-15T12:35:43;28.40;47.70
27890;DHT22;15238;49.082;9.102;2022-07-15T12:37:48;28.30;49.00
27890;DHT22;15238;49.082;9.102;2022-07-15T12:40:00;28.40;47.90
27890;DHT22;15238;49.082;9.102;2022-07-15T12:42:02;28.50;48.00
27890;DHT22;15238;49.082;9.102;2022-07-15T12:44:04;28.20;48.10
27890;DHT22;15238;49.082;9.102;2022-07-15T12:46:05;28.10;47.90
27890;DHT22;15238;49.082;9.102;2022-07-15T12:48:09;27.70;48.20
27890;DHT22;15238;49.082;9.102;2022-07-15T12:50:10;27.60;48.00
27890;DHT22;15238;49.082;9.102;2022-07-15T12:52:37;27.60;48.70
27890;DHT22;15238;49.082;9.102;2022-07-15T12:54:38;27.40;48.80
27890;DHT22;15238;49.082;9.102;2022-07-15T12:56:51;27.30;49.80
27890;DHT22;15238;49.082;9.102;2022-07-15T12:58:52;27.20;49.40
27890;DHT22;15238;49.082;9.102;2022-07-15T13:01:13;27.20;49.10
27890;DHT22;15238;49.082;9.102;2022-07-15T13:03:22;27.20;49.40
27890;DHT22;15238;49.082;9.102;2022-07-15T13:05:23;27.40;49.00
27890;DHT22;15238;49.082;9.102;2022-07-15T13:07:24;27.40;48.70
27890;DHT22;15238;49.082;9.102;2022-07-15T13:09:25;27.10;48.60
27890;DHT22;15238;49.082;9.102;2022-07-15T13:11:25;27.00;48.80
27890;DHT22;15238;49.082;9.102;2022-07-15T13:13:28;26.60;49.70
27890;DHT22;15238;49.082;9.102;2022-07-15T13:15:29;26.50;49.90
27890;DHT22;15238;49.082;9.102;2022-07-15T13:17:29;26.60;49.50
27890;DHT22;15238;49.082;9.102;2022-07-15T13:19:30;26.70;49.50
27890;DHT22;15238;49.082;9.102;2022-07-15T13:21:31;26.80;49.40
27890;DHT22;15238;49.082;9.102;2022-07-15T13:23:31;26.80;49.10
27890;DHT22;15238;49.082;9.102;2022-07-15T13:25:32;27.00;48.80